createdAt,value
2022-12-03T00:00:12.467Z,16.20
2022-12-03T00:03:15.369Z,16.40
2022-12-03T00:06:18.372Z,14.87
2022-12-03T00:09:20.690Z,15.90
2022-12-03T00:12:22.942Z,15.77
2022-12-03T00:15:25.109Z,14.68
2022-12-03T00:18:27.319Z,16.73
2022-12-03T00:21:29.507Z,14.80
2022-12-03T00:24:32.763Z,15.13
2022-12-03T00:27:34.981Z,14.10
2022-12-03T00:30:37.389Z,14.40
2022-12-03T00:33:39.619Z,14.82
2022-12-03T00:36:41.838Z,15.17
2022-12-03T00:39:44.145Z,15.30
2022-12-03T00:42:46.353Z,16.35
2022-12-03T00:45:48.609Z,14.38
2022-12-03T00:48:50.813Z,14.82
2022-12-03T00:51:53.389Z,13.77
2022-12-03T00:54:55.783Z,15.38
2022-12-03T00:57:58.394Z,15.75
2022-12-03T01:01:00.829Z,14.68
2022-12-03T01:04:03.032Z,15.00
2022-12-03T01:07:05.300Z,15.50
2022-12-03T01:10:07.761Z,14.68
2022-12-03T01:13:10.185Z,15.43
2022-12-03T01:16:12.781Z,15.25
2022-12-03T01:19:16.210Z,16.38
2022-12-03T01:22:18.731Z,14.57
2022-12-03T01:25:21.020Z,14.48
2022-12-03T01:28:23.556Z,15.20
2022-12-03T01:31:44.463Z,14.10
2022-12-03T01:34:47.596Z,15.20
2022-12-03T01:37:49.890Z,13.30
2022-12-03T01:40:52.232Z,14.70
2022-12-03T01:43:57.918Z,15.18
2022-12-03T01:47:02.135Z,15.48
2022-12-03T01:50:04.587Z,14.55
2022-12-03T01:53:06.816Z,15.27
2022-12-03T01:56:09.495Z,14.82
2022-12-03T01:59:20.781Z,14.13
2022-12-03T02:02:24.389Z,15.00
2022-12-03T02:05:36.107Z,13.35
2022-12-03T02:08:40.746Z,14.40
2022-12-03T02:11:48.501Z,14.32
2022-12-03T02:14:51.565Z,14.77
2022-12-03T02:17:54.980Z,14.73
2022-12-03T02:21:12.627Z,14.45
2022-12-03T02:24:25.094Z,15.87
2022-12-03T02:27:28.340Z,13.65
2022-12-03T02:30:31.127Z,16.58
2022-12-03T02:33:33.442Z,14.57
2022-12-03T02:36:36.208Z,13.55
2022-12-03T02:39:40.703Z,15.03
2022-12-03T02:42:43.242Z,16.13
2022-12-03T02:45:47.313Z,15.43
2022-12-03T02:48:49.598Z,14.38
2022-12-03T02:51:51.848Z,16.17
2022-12-03T02:54:54.541Z,15.80
2022-12-03T02:57:57.342Z,17.40
2022-12-03T03:01:00.689Z,15.52
2022-12-03T03:04:04.593Z,15.55
2022-12-03T03:07:06.977Z,14.85
2022-12-03T03:10:11.383Z,16.07
2022-12-03T03:13:18.006Z,16.02
2022-12-03T03:16:20.373Z,14.82
2022-12-03T03:19:25.913Z,15.50
2022-12-03T03:22:35.240Z,14.93
2022-12-03T03:25:38.538Z,15.20
2022-12-03T03:28:43.115Z,15.45
2022-12-03T03:31:46.329Z,14.27
2022-12-03T03:34:48.561Z,15.27
2022-12-03T03:37:51.381Z,15.98
2022-12-03T03:40:54.336Z,14.93
2022-12-03T03:43:56.950Z,14.93
2022-12-03T03:46:59.830Z,15.82
2022-12-03T03:50:02.461Z,15.10
2022-12-03T03:53:04.986Z,14.95
2022-12-03T03:56:07.657Z,14.97
2022-12-03T03:59:09.812Z,14.50
2022-12-03T04:02:19.819Z,16.13
2022-12-03T04:05:23.039Z,14.38
2022-12-03T04:08:25.210Z,14.88
2022-12-03T04:11:46.048Z,15.07
2022-12-03T04:14:48.235Z,15.10
2022-12-03T04:18:10.804Z,16.05
2022-12-03T04:21:32.773Z,14.32
2022-12-03T04:24:34.979Z,15.27
2022-12-03T04:27:56.056Z,15.17
2022-12-03T04:30:58.477Z,15.10
2022-12-03T04:34:36.109Z,15.48
2022-12-03T04:37:38.378Z,15.88
2022-12-03T04:40:59.598Z,16.45
2022-12-03T04:44:20.626Z,15.30
2022-12-03T04:47:22.848Z,15.90
2022-12-03T04:50:25.051Z,15.52
2022-12-03T04:53:30.205Z,16.17
2022-12-03T04:56:32.369Z,16.52
2022-12-03T04:59:35.167Z,15.90
2022-12-03T05:02:37.511Z,15.18
2022-12-03T05:05:39.729Z,15.90
2022-12-03T05:08:41.917Z,14.90
2022-12-03T05:11:44.434Z,15.90
2022-12-03T05:14:46.748Z,16.67
2022-12-03T05:17:48.952Z,15.65
2022-12-03T05:20:53.520Z,17.00
2022-12-03T05:23:55.956Z,16.42
2022-12-03T05:26:58.128Z,16.35
2022-12-03T05:30:00.467Z,14.90
2022-12-03T05:33:02.761Z,17.55
2022-12-03T05:36:04.999Z,16.15
2022-12-03T05:39:07.286Z,16.45
2022-12-03T05:42:28.760Z,15.63
2022-12-03T05:45:36.301Z,16.43
2022-12-03T05:48:38.558Z,15.75
2022-12-03T05:51:40.727Z,16.00
2022-12-03T05:54:42.893Z,15.38
2022-12-03T05:57:45.656Z,16.90
2022-12-03T06:00:48.050Z,17.53
2022-12-03T06:03:50.364Z,17.02
2022-12-03T06:06:53.209Z,17.02
2022-12-03T06:09:55.367Z,17.23
2022-12-03T06:12:57.737Z,18.23
2022-12-03T06:16:00.093Z,17.67
2022-12-03T06:19:03.583Z,16.17
2022-12-03T06:22:06.107Z,18.75
2022-12-03T06:25:08.765Z,16.30
2022-12-03T06:28:11.093Z,17.30
2022-12-03T06:31:14.050Z,16.07
2022-12-03T06:34:16.418Z,16.83
2022-12-03T06:37:19.041Z,18.38
2022-12-03T06:40:21.314Z,17.63
2022-12-03T06:43:23.520Z,17.00
2022-12-03T06:46:25.789Z,16.67
2022-12-03T06:49:27.972Z,19.08
2022-12-03T06:52:30.190Z,16.80
2022-12-03T06:55:32.440Z,17.80
2022-12-03T06:58:34.700Z,17.48
2022-12-03T07:01:36.957Z,17.13
2022-12-03T07:04:43.408Z,17.00
2022-12-03T07:07:52.360Z,17.48
2022-12-03T07:10:55.006Z,18.60
2022-12-03T07:14:01.559Z,17.60
2022-12-03T07:17:07.290Z,17.13
2022-12-03T07:20:09.793Z,17.88
2022-12-03T07:23:12.074Z,18.42
2022-12-03T07:26:14.347Z,18.42
2022-12-03T07:29:16.615Z,17.92
2022-12-03T07:32:18.785Z,17.67
2022-12-03T07:35:22.040Z,17.50
2022-12-03T07:38:24.503Z,17.80
2022-12-03T07:41:27.014Z,18.90
2022-12-03T07:44:31.490Z,17.83
2022-12-03T07:47:33.724Z,16.53
2022-12-03T07:50:35.881Z,16.08
2022-12-03T07:53:38.086Z,16.75
2022-12-03T07:56:40.329Z,16.08
2022-12-03T07:59:42.529Z,16.98
2022-12-03T08:02:44.761Z,15.17
2022-12-03T08:05:47.035Z,15.50
2022-12-03T08:08:49.489Z,15.05
2022-12-03T08:11:52.196Z,16.17
2022-12-03T08:14:54.651Z,15.70
2022-12-03T08:17:58.810Z,15.90
2022-12-03T08:21:01.009Z,15.75
2022-12-03T08:24:13.442Z,15.38
2022-12-03T08:27:18.329Z,15.30
2022-12-03T08:30:20.761Z,15.15
2022-12-03T08:33:28.587Z,13.97
2022-12-03T08:36:33.492Z,13.50
2022-12-03T08:39:39.104Z,13.80
2022-12-03T08:42:41.755Z,13.57
2022-12-03T08:45:45.229Z,13.85
2022-12-03T08:48:49.513Z,13.60
2022-12-03T08:51:55.936Z,13.60
2022-12-03T08:54:58.283Z,13.15
2022-12-03T08:58:00.606Z,13.18
2022-12-03T09:01:14.497Z,13.82
2022-12-03T09:04:24.490Z,13.20
2022-12-03T09:07:26.899Z,14.07
2022-12-03T09:10:29.298Z,13.65
2022-12-03T09:13:31.551Z,13.13
2022-12-03T09:16:33.932Z,13.20
2022-12-03T09:19:38.074Z,14.17
2022-12-03T09:22:43.697Z,14.10
2022-12-03T09:25:45.837Z,13.85
2022-12-03T09:28:48.649Z,13.13
2022-12-03T09:31:51.032Z,14.55
2022-12-03T09:34:54.181Z,14.00
2022-12-03T09:37:56.581Z,14.15
2022-12-03T09:40:59.430Z,11.90
2022-12-03T09:44:04.419Z,12.80
2022-12-03T09:47:08.200Z,13.20
2022-12-03T09:50:19.729Z,14.23
2022-12-03T09:53:23.072Z,13.05
2022-12-03T09:56:25.562Z,13.13
2022-12-03T09:59:32.161Z,12.55
2022-12-03T10:02:34.941Z,12.13
2022-12-03T10:05:37.443Z,12.07
2022-12-03T10:08:39.704Z,12.52
2022-12-03T10:11:41.913Z,11.75
2022-12-03T10:14:44.124Z,11.40
2022-12-03T10:17:46.909Z,11.65
2022-12-03T10:20:49.325Z,10.33
2022-12-03T10:24:10.403Z,11.38
2022-12-03T10:27:29.681Z,11.10
2022-12-03T10:30:32.155Z,10.32
2022-12-03T10:33:38.513Z,10.77
2022-12-03T10:36:41.516Z,10.50
2022-12-03T10:40:00.419Z,10.85
2022-12-03T10:43:17.951Z,11.30
2022-12-03T10:46:23.353Z,10.60
2022-12-03T10:49:25.668Z,10.75
2022-12-03T10:52:28.280Z,11.17
2022-12-03T10:55:35.574Z,10.85
2022-12-03T10:58:38.712Z,10.52
2022-12-03T11:01:41.239Z,9.50
2022-12-03T11:04:43.802Z,9.80
2022-12-03T11:07:46.164Z,10.13
2022-12-03T11:11:07.705Z,9.80
2022-12-03T11:14:10.472Z,10.00
2022-12-03T11:17:12.713Z,9.57
2022-12-03T11:20:22.785Z,9.30
2022-12-03T11:23:44.151Z,9.73
2022-12-03T11:26:46.351Z,9.35
2022-12-03T11:29:51.597Z,8.90
2022-12-03T11:33:00.851Z,9.80
2022-12-03T11:36:03.017Z,9.20
2022-12-03T11:39:08.393Z,9.70
2022-12-03T11:42:25.860Z,10.27
2022-12-03T11:45:30.436Z,10.93
2022-12-03T11:48:32.779Z,9.80
2022-12-03T11:51:34.967Z,10.25
2022-12-03T11:54:37.565Z,10.10
2022-12-03T11:57:39.919Z,10.25
2022-12-03T12:00:51.952Z,10.85
2022-12-03T12:03:54.325Z,9.57
2022-12-03T12:06:56.620Z,10.05
2022-12-03T12:09:58.878Z,10.73
2022-12-03T12:13:01.376Z,9.45
2022-12-03T12:16:05.313Z,9.88
2022-12-03T12:19:26.291Z,10.43
2022-12-03T12:22:29.923Z,10.25
2022-12-03T12:25:32.116Z,11.40
2022-12-03T12:28:34.277Z,10.20
2022-12-03T12:31:36.547Z,9.90
2022-12-03T12:34:49.244Z,11.05
2022-12-03T12:37:59.635Z,10.40
2022-12-03T12:41:06.806Z,10.13
2022-12-03T12:44:13.348Z,10.55
2022-12-03T12:47:15.598Z,10.88
2022-12-03T12:50:18.546Z,10.27
2022-12-03T12:53:24.154Z,11.20
2022-12-03T12:56:27.611Z,10.80
2022-12-03T12:59:29.900Z,9.85
2022-12-03T13:02:43.289Z,10.35
2022-12-03T13:05:47.353Z,10.80
2022-12-03T13:08:50.408Z,9.60
2022-12-03T13:11:53.859Z,9.77
2022-12-03T13:14:58.161Z,10.73
2022-12-03T13:18:00.967Z,10.55
2022-12-03T13:21:11.341Z,10.63
2022-12-03T13:24:28.983Z,10.70
2022-12-03T13:27:31.280Z,10.70
2022-12-03T13:30:33.462Z,10.20
2022-12-03T13:33:35.646Z,10.38
2022-12-03T13:36:44.742Z,9.98
2022-12-03T13:39:48.274Z,9.93
2022-12-03T13:42:50.492Z,9.73
2022-12-03T13:45:54.462Z,10.90
2022-12-03T13:49:00.412Z,10.57
2022-12-03T13:52:09.866Z,10.10
2022-12-03T13:55:15.185Z,10.20
2022-12-03T13:58:17.499Z,11.03
2022-12-03T14:01:19.786Z,10.50
2022-12-03T14:04:21.993Z,10.73
2022-12-03T14:07:24.264Z,10.52
2022-12-03T14:10:26.471Z,10.90
2022-12-03T14:13:28.688Z,11.30
2022-12-03T14:16:30.945Z,11.63
2022-12-03T14:19:48.327Z,10.60
2022-12-03T14:22:53.924Z,11.73
2022-12-03T14:25:59.906Z,9.65
2022-12-03T14:29:07.162Z,10.70
2022-12-03T14:32:11.158Z,10.60
2022-12-03T14:35:13.904Z,10.05
2022-12-03T14:38:16.206Z,9.82
2022-12-03T14:41:37.030Z,10.85
2022-12-03T14:44:59.467Z,11.13
2022-12-03T14:48:01.958Z,10.52
2022-12-03T14:51:04.329Z,10.23
2022-12-03T14:54:06.579Z,10.32
2022-12-03T14:57:09.206Z,11.45
2022-12-03T15:00:12.166Z,11.00
2022-12-03T15:03:14.353Z,10.75
2022-12-03T15:06:16.615Z,11.05
2022-12-03T15:09:18.853Z,11.63
2022-12-03T15:12:21.096Z,11.52
2022-12-03T15:15:23.385Z,10.57
2022-12-03T15:18:25.752Z,11.77
2022-12-03T15:21:28.851Z,11.57
2022-12-03T15:24:31.295Z,10.93
2022-12-03T15:27:33.481Z,10.45
2022-12-03T15:30:35.978Z,11.23
2022-12-03T15:33:38.237Z,11.80
2022-12-03T15:36:40.471Z,11.43
2022-12-03T15:39:48.482Z,10.95
2022-12-03T15:42:51.161Z,11.68
2022-12-03T15:45:53.944Z,11.50
2022-12-03T15:48:56.191Z,10.95
2022-12-03T15:51:58.402Z,12.50
2022-12-03T15:55:00.841Z,12.07
2022-12-03T15:58:03.109Z,11.60
2022-12-03T16:01:05.632Z,12.47
2022-12-03T16:04:08.275Z,12.57
2022-12-03T16:07:10.841Z,11.35
2022-12-03T16:10:14.417Z,13.32
2022-12-03T16:13:16.644Z,13.73
2022-12-03T16:16:18.914Z,12.10
2022-12-03T16:19:21.540Z,12.63
2022-12-03T16:22:24.083Z,12.82
2022-12-03T16:25:26.356Z,14.60
2022-12-03T16:28:28.807Z,15.00
2022-12-03T16:31:31.172Z,15.53
2022-12-03T16:34:33.620Z,14.98
2022-12-03T16:37:36.179Z,16.10
2022-12-03T16:40:38.556Z,16.20
2022-12-03T16:43:40.933Z,16.10
2022-12-03T16:46:43.368Z,14.87
2022-12-03T16:49:45.779Z,15.07
2022-12-03T16:52:47.957Z,15.05
2022-12-03T16:55:50.205Z,15.57
2022-12-03T16:58:52.492Z,15.65
2022-12-03T17:01:57.296Z,15.67
2022-12-03T17:04:59.625Z,15.55
2022-12-03T17:08:01.845Z,16.00
2022-12-03T17:11:04.316Z,16.73
2022-12-03T17:14:06.717Z,16.30
2022-12-03T17:17:09.023Z,17.10
2022-12-03T17:20:12.651Z,17.58
2022-12-03T17:23:15.228Z,15.98
2022-12-03T17:26:18.380Z,19.10
2022-12-03T17:29:20.577Z,19.33
2022-12-03T17:32:22.904Z,18.33
2022-12-03T17:35:26.783Z,19.00
2022-12-03T17:38:32.822Z,20.65
2022-12-03T17:41:39.416Z,18.27
2022-12-03T17:44:41.819Z,18.33
2022-12-03T17:47:44.143Z,19.83
2022-12-03T17:50:46.432Z,17.85
2022-12-03T17:53:48.806Z,17.65
2022-12-03T17:56:51.233Z,17.88
2022-12-03T17:59:53.689Z,17.42
2022-12-03T18:02:56.042Z,17.63
2022-12-03T18:05:58.279Z,18.58
2022-12-03T18:09:00.554Z,17.50
2022-12-03T18:12:03.058Z,17.38
2022-12-03T18:15:05.447Z,16.88
2022-12-03T18:18:07.694Z,17.37
2022-12-03T18:21:09.951Z,18.23
2022-12-03T18:24:12.193Z,16.75
2022-12-03T18:27:14.861Z,17.35
2022-12-03T18:30:17.195Z,17.70
2022-12-03T18:33:19.984Z,16.87
2022-12-03T18:36:24.693Z,17.75
2022-12-03T18:39:28.873Z,18.23
2022-12-03T18:42:31.252Z,17.15
2022-12-03T18:45:33.484Z,16.90
2022-12-03T18:48:35.639Z,17.50
2022-12-03T18:51:37.935Z,16.83
2022-12-03T18:54:40.360Z,17.88
2022-12-03T18:57:42.798Z,18.15
2022-12-03T19:00:45.130Z,18.80
2022-12-03T19:03:47.942Z,16.60
2022-12-03T19:06:50.365Z,18.05
2022-12-03T19:09:53.244Z,17.80
2022-12-03T19:12:56.229Z,18.50
2022-12-03T19:16:01.215Z,17.67
2022-12-03T19:19:04.054Z,18.23
2022-12-03T19:22:06.545Z,18.58
2022-12-03T19:25:09.157Z,18.67
2022-12-03T19:28:11.525Z,18.20
2022-12-03T19:31:15.177Z,17.70
2022-12-03T19:34:17.701Z,17.07
2022-12-03T19:37:20.339Z,18.13
2022-12-03T19:40:22.820Z,17.15
2022-12-03T19:43:24.991Z,18.48
2022-12-03T19:46:31.293Z,18.10
2022-12-03T19:49:33.857Z,19.17
2022-12-03T19:52:36.632Z,17.88
2022-12-03T19:55:39.024Z,18.13
2022-12-03T19:58:42.253Z,18.63
2022-12-03T20:01:44.597Z,17.10
2022-12-03T20:04:47.154Z,16.77
2022-12-03T20:07:49.473Z,17.58
2022-12-03T20:10:52.280Z,17.30
2022-12-03T20:13:56.068Z,18.63
2022-12-03T20:16:59.567Z,18.85
2022-12-03T20:20:02.145Z,18.27
2022-12-03T20:23:07.488Z,18.77
2022-12-03T20:26:11.198Z,19.25
2022-12-03T20:29:13.577Z,19.23
2022-12-03T20:32:16.004Z,19.13
2022-12-03T20:35:18.537Z,19.57
2022-12-03T20:38:21.443Z,19.83
2022-12-03T20:41:23.970Z,19.17
2022-12-03T20:44:26.416Z,20.27
2022-12-03T20:47:28.800Z,20.85
2022-12-03T20:50:32.714Z,19.33
2022-12-03T20:53:35.335Z,19.85
2022-12-03T20:56:42.046Z,20.98
2022-12-03T20:59:45.430Z,21.00
2022-12-03T21:02:47.747Z,19.98
2022-12-03T21:05:50.132Z,18.50
2022-12-03T21:08:53.231Z,20.95
2022-12-03T21:11:55.584Z,19.98
2022-12-03T21:14:57.797Z,20.50
2022-12-03T21:18:01.043Z,21.83
2022-12-03T21:21:04.020Z,20.97
2022-12-03T21:24:06.436Z,21.00
2022-12-03T21:27:08.810Z,21.48
2022-12-03T21:30:11.397Z,20.58
2022-12-03T21:33:13.739Z,21.35
2022-12-03T21:36:16.928Z,19.70
2022-12-03T21:39:19.534Z,21.02
2022-12-03T21:42:35.962Z,21.58
2022-12-03T21:45:40.175Z,18.58
2022-12-03T21:48:48.527Z,22.15
2022-12-03T21:51:50.742Z,20.97
2022-12-03T21:54:53.106Z,20.80
2022-12-03T21:57:55.283Z,20.13
2022-12-03T22:00:57.692Z,19.30
2022-12-03T22:04:00.373Z,20.35
2022-12-03T22:07:02.753Z,17.97
2022-12-03T22:10:09.419Z,19.50
2022-12-03T22:13:11.687Z,19.60
2022-12-03T22:16:15.465Z,19.58
2022-12-03T22:19:17.716Z,20.45
2022-12-03T22:22:20.173Z,17.93
2022-12-03T22:25:22.441Z,18.30
2022-12-03T22:28:24.940Z,17.25
2022-12-03T22:31:27.294Z,18.70
2022-12-03T22:34:29.743Z,18.45
2022-12-03T22:37:32.866Z,18.27
2022-12-03T22:40:35.087Z,16.02
2022-12-03T22:43:37.645Z,15.57
2022-12-03T22:46:40.227Z,17.17
2022-12-03T22:49:42.510Z,17.02
2022-12-03T22:52:44.884Z,17.90
2022-12-03T22:55:59.911Z,17.70
2022-12-03T22:59:02.195Z,18.48
2022-12-03T23:02:04.367Z,15.48
2022-12-03T23:05:06.929Z,17.33
2022-12-03T23:08:11.736Z,17.27
2022-12-03T23:11:14.307Z,16.33
2022-12-03T23:14:16.538Z,16.83
2022-12-03T23:17:18.703Z,16.45
2022-12-03T23:20:20.993Z,17.33
2022-12-03T23:23:24.212Z,18.00
2022-12-03T23:26:27.143Z,17.02
2022-12-03T23:29:29.380Z,16.48
2022-12-03T23:32:31.813Z,18.17
2022-12-03T23:35:34.337Z,17.25
2022-12-03T23:38:36.567Z,18.50
2022-12-03T23:41:38.886Z,17.02
2022-12-03T23:44:41.083Z,17.50
2022-12-03T23:47:43.366Z,16.42
2022-12-03T23:50:45.677Z,18.60
2022-12-03T23:53:47.967Z,18.00
2022-12-03T23:56:50.423Z,16.08
2022-12-03T23:59:53.105Z,17.95
